Airfield :
LOGIN :

Register | Disclaimer

   EN    FR    IT 

 










Legend :    VFR   Marginal VFR   IFR   Intensive IFR   Very Intensive IFR
Visi :
Ceiling :
>= 8 km
>= 3000ft
5 to 8 km
1000 to 3000 ft
1500m to 5 km
500 to 1000 ft
800 to 1500m
200 to 500 ft
< 800m
< 200 ft
Symbols :   Thunderstorms  Fog  Heavy snow  Heavy precipitations  Wind > 20 kt
SIGMETs :     Misc.  Thunderstorms  Icing  Turbulence  Mountain Waves  Volcanic Ashes






- Airport Elevation : 523 ft
- IATA code : AUF


LFLA - Auxerre

CURRENT METAR :
  • 230900Z AUTO 25005KT 200V300 9999 FEW011/// BKN037/// OVC088/// ///TCU 16/12 Q1017

EXPIRED METARs :
  • 230830Z AUTO 23007KT 200V260 9999 FEW016 BKN088 15/11 Q1017
  • 230800Z AUTO 25007KT 200V280 9999 BKN018 BKN090 OVC120 15/11 Q1017
  • 230730Z AUTO 22007KT 9999 FEW013 SCT018 OVC090 14/11 Q1017
  • 230700Z AUTO 21007KT 190V250 9999 FEW010/// SCT028/// OVC088/// ///TCU 14/12 Q1017
  • 230630Z AUTO 22006KT 9999 BKN009 BKN029 BKN064 13/12 Q1017
  • 230600Z AUTO 20004KT 170V230 9999 BKN008 OVC068 13/12 Q1017
  • 230530Z AUTO 19004KT 9999 BKN008/// BKN041/// BKN076/// ///TCU 12/12 Q1016
  • 230500Z AUTO VRB02KT 9999 SCT009/// BKN041/// BKN050/// ///TCU 11/11 Q1016
  • 230430Z AUTO 20002KT 9999 BKN009 OVC033 11/10 Q1016

TAF N/A



MET'MAP, your aeronautical weather chart ! - Copyright ORBIFLY December 2007 - Disclaimer

ORBIFLY MET'MAP TEAM :

Programming & Development : Alexandra Zaïnal
Original concept : Baudouin d'Aumeries
Technical & hardware support : Manuel Goepfert
Assistance : Marc-Olivier Méhu




SOURCES & CREDITS :

   NOAA